createdAt,value
2019-04-26T00:01:46.033Z,5.45
2019-04-26T00:04:14.366Z,9.58
2019-04-26T00:06:42.624Z,11.73
2019-04-26T00:09:27.726Z,6.15
2019-04-26T00:12:14.426Z,9.73
2019-04-26T00:14:44.418Z,11.38
2019-04-26T00:17:14.377Z,8.23
2019-04-26T00:19:43.982Z,5.80
2019-04-26T00:22:12.971Z,5.97
2019-04-26T00:24:41.635Z,7.17
2019-04-26T00:27:11.271Z,10.85
2019-04-26T00:29:39.722Z,9.70
2019-04-26T00:32:07.972Z,14.20
2019-04-26T00:34:36.237Z,8.68
2019-04-26T00:37:04.493Z,9.63
2019-04-26T00:39:32.785Z,9.13
2019-04-26T00:42:01.323Z,9.33
2019-04-26T00:44:29.591Z,10.90
2019-04-26T00:46:57.855Z,8.20
2019-04-26T00:49:26.130Z,8.40
2019-04-26T00:51:55.010Z,5.92
2019-04-26T00:54:24.259Z,6.53
2019-04-26T00:56:52.960Z,9.95
2019-04-26T00:59:21.214Z,6.92
2019-04-26T01:01:51.357Z,7.90
2019-04-26T01:04:19.597Z,8.23
2019-04-26T01:06:49.521Z,4.45
2019-04-26T01:09:18.141Z,6.15
2019-04-26T01:11:46.405Z,9.93
2019-04-26T01:14:15.513Z,10.00
2019-04-26T01:16:44.638Z,6.53
2019-04-26T01:19:12.886Z,9.10
2019-04-26T01:21:47.604Z,9.18
2019-04-26T01:24:16.882Z,9.38
2019-04-26T01:26:45.841Z,12.03
2019-04-26T01:29:14.266Z,8.28
2019-04-26T01:31:45.819Z,10.85
2019-04-26T01:34:14.322Z,13.22
2019-04-26T01:36:42.700Z,12.30
2019-04-26T01:39:17.096Z,10.70
2019-04-26T01:44:33.639Z,11.60
2019-04-26T01:47:01.909Z,14.83
2019-04-26T01:49:30.687Z,13.03
2019-04-26T01:52:02.155Z,14.87
2019-04-26T01:54:36.482Z,15.30
2019-04-26T01:57:04.906Z,10.40
2019-04-26T01:59:33.417Z,8.20
2019-04-26T02:02:12.102Z,10.63
2019-04-26T02:04:42.011Z,9.93
2019-04-26T02:07:10.273Z,9.90
2019-04-26T02:09:38.558Z,8.18
2019-04-26T02:12:07.076Z,9.35
2019-04-26T02:14:35.605Z,11.18
2019-04-26T02:17:04.118Z,12.75
2019-04-26T02:19:33.670Z,7.90
2019-04-26T02:22:03.762Z,10.23
2019-04-26T02:24:36.642Z,12.50
2019-04-26T02:27:06.524Z,11.75
2019-04-26T02:29:35.163Z,10.95
2019-04-26T02:32:04.418Z,17.30
2019-04-26T02:34:33.871Z,11.63
2019-04-26T02:37:04.018Z,11.68
2019-04-26T02:39:37.506Z,17.17
2019-04-26T02:42:08.158Z,9.77
2019-04-26T02:44:40.784Z,10.18
2019-04-26T02:47:33.167Z,18.23
2019-04-26T02:50:08.202Z,11.10
2019-04-26T02:52:42.552Z,12.30
2019-04-26T02:55:15.631Z,11.20
2019-04-26T02:57:47.422Z,11.78
2019-04-26T03:00:18.462Z,18.90
2019-04-26T03:02:48.904Z,17.95
2019-04-26T03:05:17.181Z,10.13
2019-04-26T03:07:51.325Z,11.00
2019-04-26T03:10:20.135Z,8.78
2019-04-26T03:12:48.632Z,12.70
2019-04-26T03:15:22.935Z,8.18
2019-04-26T03:17:58.938Z,10.98
2019-04-26T03:20:32.578Z,17.55
2019-04-26T03:23:12.623Z,13.55
2019-04-26T03:25:46.829Z,10.95
2019-04-26T03:28:37.125Z,11.90
2019-04-26T03:31:17.156Z,15.63
2019-04-26T03:34:06.487Z,10.45
2019-04-26T03:37:19.360Z,7.87
2019-04-26T03:40:18.740Z,13.45
2019-04-26T03:42:59.234Z,10.57
2019-04-26T03:45:46.190Z,10.30
2019-04-26T03:48:20.501Z,13.45
2019-04-26T03:51:25.711Z,15.25
2019-04-26T03:53:57.339Z,15.03
2019-04-26T03:56:30.725Z,13.73
2019-04-26T03:59:38.893Z,10.03
2019-04-26T04:02:27.033Z,13.60
2019-04-26T04:04:59.772Z,12.73
2019-04-26T04:07:37.172Z,13.13
2019-04-26T04:10:07.450Z,14.83
2019-04-26T04:12:42.150Z,13.53
2019-04-26T04:15:14.763Z,16.40
2019-04-26T04:17:50.394Z,15.83
2019-04-26T04:20:44.373Z,14.53
2019-04-26T04:23:33.251Z,14.40
2019-04-26T04:26:01.533Z,16.60
2019-04-26T04:29:03.792Z,14.70
2019-04-26T04:31:49.004Z,14.20
2019-04-26T04:34:23.891Z,13.57
2019-04-26T04:36:53.700Z,12.90
2019-04-26T04:39:28.444Z,14.83
2019-04-26T04:45:00.137Z,14.10
2019-04-26T04:47:32.749Z,15.47
2019-04-26T04:50:11.777Z,13.80
2019-04-26T04:52:55.214Z,11.63
2019-04-26T04:55:55.281Z,19.37
2019-04-26T04:58:43.565Z,13.03
2019-04-26T05:01:34.368Z,20.27
2019-04-26T05:04:13.039Z,18.20
2019-04-26T05:07:16.526Z,11.25
2019-04-26T05:10:08.554Z,19.63
2019-04-26T05:12:57.907Z,13.93
2019-04-26T05:15:39.995Z,20.73
2019-04-26T05:18:17.378Z,18.60
2019-04-26T05:20:48.896Z,17.87
2019-04-26T05:23:32.247Z,17.12
2019-04-26T05:26:24.730Z,17.00
2019-04-26T05:29:34.441Z,13.90
2019-04-26T05:32:31.978Z,15.80
2019-04-26T05:35:15.321Z,17.65
2019-04-26T05:38:17.926Z,12.63
2019-04-26T05:41:13.946Z,15.93
2019-04-26T05:43:58.514Z,12.05
2019-04-26T05:46:54.461Z,14.38
2019-04-26T05:50:02.384Z,16.60
2019-04-26T05:52:45.781Z,23.22
2019-04-26T05:55:18.684Z,19.02
2019-04-26T05:57:54.666Z,19.50
2019-04-26T06:00:47.230Z,18.23
2019-04-26T06:04:10.514Z,19.45
2019-04-26T06:06:46.604Z,20.48
2019-04-26T06:09:50.347Z,27.55
2019-04-26T06:12:52.581Z,26.33
2019-04-26T06:15:43.345Z,26.20
2019-04-26T06:18:37.733Z,23.15
2019-04-26T06:21:26.151Z,25.45
2019-04-26T06:24:00.709Z,23.15
2019-04-26T06:27:10.994Z,27.42
2019-04-26T06:29:54.122Z,25.02
2019-04-26T06:32:28.831Z,25.65
2019-04-26T06:35:20.275Z,26.75
2019-04-26T06:38:00.022Z,26.30
2019-04-26T06:41:04.928Z,22.52
2019-04-26T06:43:38.384Z,26.95
2019-04-26T06:46:23.541Z,23.32
2019-04-26T06:49:24.018Z,19.45
2019-04-26T06:52:10.064Z,22.80
2019-04-26T06:55:10.034Z,24.85
2019-04-26T06:58:04.896Z,26.12
2019-04-26T07:01:03.295Z,25.40
2019-04-26T07:03:53.266Z,20.52
2019-04-26T07:06:45.558Z,29.10
2019-04-26T07:09:13.840Z,22.48
2019-04-26T07:12:18.778Z,19.35
2019-04-26T07:14:59.448Z,23.98
2019-04-26T07:17:51.418Z,19.10
2019-04-26T07:20:39.654Z,26.23
2019-04-26T07:23:24.293Z,24.72
2019-04-26T07:26:17.644Z,19.05
2019-04-26T07:29:11.765Z,23.42
2019-04-26T07:31:52.226Z,21.77
2019-04-26T07:34:25.345Z,25.15
2019-04-26T07:37:20.418Z,23.40
2019-04-26T07:40:07.620Z,22.60
2019-04-26T07:43:01.904Z,22.85
2019-04-26T07:45:54.206Z,20.50
2019-04-26T07:48:34.542Z,21.52
2019-04-26T07:51:32.169Z,17.67
2019-04-26T07:54:23.237Z,19.42
2019-04-26T07:57:41.824Z,31.00
2019-04-26T08:00:19.191Z,29.15
2019-04-26T08:03:06.964Z,31.93
2019-04-26T08:05:40.289Z,21.50
2019-04-26T08:08:08.666Z,19.17
2019-04-26T08:10:39.144Z,22.98
2019-04-26T08:13:10.150Z,22.20
2019-04-26T08:16:04.885Z,21.48
2019-04-26T08:18:36.447Z,25.15
2019-04-26T08:21:12.729Z,17.82
2019-04-26T08:23:42.082Z,17.23
2019-04-26T08:26:13.402Z,16.12
2019-04-26T08:28:42.081Z,18.92
2019-04-26T08:31:15.564Z,19.92
2019-04-26T08:33:48.439Z,18.32
2019-04-26T08:36:14.699Z,21.80
2019-04-26T08:38:43.127Z,18.30
2019-04-26T08:41:11.607Z,15.95
2019-04-26T08:43:44.223Z,19.37
2019-04-26T08:46:32.297Z,17.73
2019-04-26T08:49:08.483Z,19.87
2019-04-26T08:51:37.448Z,23.40
2019-04-26T08:54:07.410Z,16.70
2019-04-26T08:56:40.645Z,25.10
2019-04-26T08:59:15.001Z,18.07
2019-04-26T09:01:45.485Z,20.92
2019-04-26T09:04:31.770Z,23.38
2019-04-26T09:07:12.176Z,19.15
2019-04-26T09:09:41.519Z,21.87
2019-04-26T09:12:22.496Z,17.60
2019-04-26T09:14:43.714Z,19.45
2019-04-26T09:17:12.220Z,23.25
2019-04-26T09:19:40.504Z,17.00
2019-04-26T09:22:13.353Z,19.07
2019-04-26T09:24:55.147Z,18.23
2019-04-26T09:30:00.540Z,14.83
2019-04-26T09:32:36.418Z,19.40
2019-04-26T09:35:06.794Z,22.30
2019-04-26T09:37:35.312Z,19.73
2019-04-26T09:40:10.396Z,14.40
2019-04-26T09:42:39.269Z,16.57
2019-04-26T09:45:09.313Z,15.18
2019-04-26T09:47:51.897Z,18.07
2019-04-26T09:50:24.438Z,16.45
2019-04-26T09:52:54.274Z,22.90
2019-04-26T09:55:34.558Z,22.30
2019-04-26T09:57:53.554Z,17.82
2019-04-26T10:00:24.428Z,20.48
2019-04-26T10:02:52.706Z,14.60
2019-04-26T10:05:22.290Z,19.30
2019-04-26T10:07:51.212Z,20.43
2019-04-26T10:10:23.139Z,17.45
2019-04-26T10:12:57.835Z,14.80
2019-04-26T10:15:31.108Z,17.73
2019-04-26T10:18:00.045Z,20.60
2019-04-26T10:20:28.294Z,18.25
2019-04-26T10:22:56.565Z,15.68
2019-04-26T10:25:24.808Z,17.27
2019-04-26T10:27:53.080Z,14.98
2019-04-26T10:30:21.336Z,15.60
2019-04-26T10:32:49.606Z,12.68
2019-04-26T10:35:21.748Z,16.23
2019-04-26T10:37:49.150Z,17.65
2019-04-26T10:40:17.586Z,16.50
2019-04-26T10:42:45.857Z,16.40
2019-04-26T10:45:16.306Z,14.70
2019-04-26T10:47:44.968Z,17.02
2019-04-26T10:50:13.238Z,13.13
2019-04-26T10:52:53.415Z,13.95
2019-04-26T10:55:32.734Z,12.70
2019-04-26T10:58:18.814Z,12.60
2019-04-26T11:00:54.252Z,18.32
2019-04-26T11:03:22.784Z,14.60
2019-04-26T11:05:53.790Z,15.38
2019-04-26T11:08:21.057Z,15.83
2019-04-26T11:10:49.328Z,11.65
2019-04-26T11:13:17.604Z,13.80
2019-04-26T11:15:46.133Z,13.25
2019-04-26T11:18:14.652Z,18.17
2019-04-26T11:20:45.662Z,16.52
2019-04-26T11:23:12.988Z,14.18
2019-04-26T11:25:41.240Z,13.03
2019-04-26T11:28:09.518Z,10.25
2019-04-26T11:30:38.042Z,13.75
2019-04-26T11:33:07.236Z,14.28
2019-04-26T11:35:36.328Z,18.48
2019-04-26T11:38:04.652Z,14.35
2019-04-26T11:40:32.977Z,18.60
2019-04-26T11:43:01.228Z,19.07
2019-04-26T11:45:29.865Z,17.65
2019-04-26T11:47:58.216Z,18.27
2019-04-26T11:50:26.492Z,18.85
2019-04-26T11:52:54.741Z,14.30
2019-04-26T11:55:25.417Z,17.10
2019-04-26T11:57:53.002Z,19.15
2019-04-26T12:00:27.517Z,26.27
2019-04-26T12:02:55.522Z,18.62
2019-04-26T12:05:37.505Z,28.05
2019-04-26T12:08:07.420Z,22.75
2019-04-26T12:10:35.745Z,20.65
2019-04-26T12:13:05.797Z,22.42
2019-04-26T12:15:34.302Z,20.97
2019-04-26T12:18:05.700Z,18.10
2019-04-26T12:20:32.896Z,23.57
2019-04-26T12:23:01.143Z,14.70
2019-04-26T12:25:31.088Z,21.42
2019-04-26T12:28:01.896Z,21.70
2019-04-26T12:30:29.556Z,21.85
2019-04-26T12:32:58.053Z,18.20
2019-04-26T12:35:26.340Z,21.75
2019-04-26T12:37:55.713Z,17.27
2019-04-26T12:40:24.217Z,18.15
2019-04-26T12:42:52.474Z,18.95
2019-04-26T12:45:24.788Z,20.12
2019-04-26T12:47:54.689Z,19.00
2019-04-26T12:50:23.023Z,20.02
2019-04-26T12:52:54.990Z,30.37
2019-04-26T12:55:21.314Z,16.45
2019-04-26T12:57:49.983Z,19.30
2019-04-26T13:00:19.887Z,26.57
2019-04-26T13:02:50.140Z,18.37
2019-04-26T13:05:18.981Z,27.48
2019-04-26T13:07:50.047Z,18.92
2019-04-26T13:10:25.924Z,14.43
2019-04-26T13:13:08.009Z,10.98
2019-04-26T13:16:04.094Z,19.02
2019-04-26T13:18:32.360Z,13.72
2019-04-26T13:21:03.120Z,12.00
2019-04-26T13:23:31.330Z,8.43
2019-04-26T13:26:01.428Z,15.25
2019-04-26T13:28:29.967Z,12.05
2019-04-26T13:30:58.245Z,16.30
2019-04-26T13:33:27.407Z,13.65
2019-04-26T13:36:02.803Z,14.47
2019-04-26T13:38:26.466Z,11.43
2019-04-26T13:40:54.750Z,18.42
2019-04-26T13:43:27.079Z,10.03
2019-04-26T13:45:55.000Z,10.72
2019-04-26T13:48:43.560Z,13.68
2019-04-26T13:51:12.799Z,19.32
2019-04-26T13:53:41.319Z,20.65
2019-04-26T13:56:10.419Z,21.02
2019-04-26T13:58:38.679Z,18.52
2019-04-26T14:01:08.857Z,18.67
2019-04-26T14:03:37.114Z,13.75
2019-04-26T14:06:05.658Z,13.70
2019-04-26T14:08:33.919Z,13.72
2019-04-26T14:11:02.189Z,19.37
2019-04-26T14:13:30.718Z,14.78
2019-04-26T14:15:58.988Z,10.95
2019-04-26T14:18:27.727Z,12.07
2019-04-26T14:20:59.009Z,11.22
2019-04-26T14:23:33.393Z,12.70
2019-04-26T14:26:05.253Z,11.50
2019-04-26T14:28:32.123Z,13.58
2019-04-26T14:31:00.654Z,19.25
2019-04-26T14:33:30.831Z,12.13
2019-04-26T14:35:58.907Z,10.25
2019-04-26T14:38:29.332Z,15.68
2019-04-26T14:41:04.108Z,12.60
2019-04-26T14:43:40.034Z,11.90
2019-04-26T14:45:57.880Z,10.82
2019-04-26T14:48:35.728Z,9.13
2019-04-26T14:51:07.506Z,10.00
2019-04-26T14:53:26.702Z,10.13
2019-04-26T14:55:55.672Z,5.75
2019-04-26T14:58:29.939Z,12.68
2019-04-26T15:00:58.738Z,13.60
2019-04-26T15:03:40.605Z,8.73
2019-04-26T15:06:10.752Z,8.65
2019-04-26T15:08:40.583Z,3.87
2019-04-26T15:11:09.270Z,8.05
2019-04-26T15:13:40.338Z,2.42
2019-04-26T15:16:10.491Z,7.87
2019-04-26T15:18:38.439Z,7.33
2019-04-26T15:21:06.933Z,8.60
2019-04-26T15:23:35.208Z,11.08
2019-04-26T15:26:03.741Z,8.13
2019-04-26T15:28:33.176Z,9.35
2019-04-26T15:31:02.321Z,6.87
2019-04-26T15:33:32.392Z,9.20
2019-04-26T15:36:02.243Z,5.03
2019-04-26T15:38:34.856Z,4.42
2019-04-26T15:41:16.250Z,7.50
2019-04-26T15:43:42.946Z,8.35
2019-04-26T15:46:19.249Z,7.92
2019-04-26T15:48:54.471Z,4.62
2019-04-26T15:51:27.361Z,9.23
2019-04-26T15:53:54.501Z,8.58
2019-04-26T15:56:23.131Z,10.20
2019-04-26T15:58:52.335Z,8.60
2019-04-26T16:01:21.101Z,4.10
2019-04-26T16:03:49.374Z,6.58
2019-04-26T16:06:17.612Z,8.78
2019-04-26T16:08:45.889Z,3.45
2019-04-26T16:11:14.138Z,8.58
2019-04-26T16:13:45.146Z,9.65
2019-04-26T16:16:12.667Z,6.80
2019-04-26T16:18:41.053Z,5.92
2019-04-26T16:21:13.505Z,9.60
2019-04-26T16:23:43.205Z,8.83
2019-04-26T16:26:12.911Z,5.42
2019-04-26T16:28:43.017Z,11.78
2019-04-26T16:31:16.174Z,7.28
2019-04-26T16:33:55.045Z,4.73
2019-04-26T16:36:23.904Z,7.47
2019-04-26T16:38:54.773Z,5.28
2019-04-26T16:41:27.344Z,8.53
2019-04-26T16:43:54.682Z,7.17
2019-04-26T16:46:24.870Z,7.53
2019-04-26T16:48:56.675Z,8.68
2019-04-26T16:51:23.782Z,9.63
2019-04-26T16:56:26.223Z,6.08
2019-04-26T16:58:54.865Z,7.17
2019-04-26T17:00:33.600Z,7.72
2019-04-26T17:01:23.430Z,7.58
2019-04-26T17:03:53.531Z,3.75
2019-04-26T17:06:23.288Z,9.63
2019-04-26T17:09:00.244Z,9.00
2019-04-26T17:11:22.976Z,9.45
2019-04-26T17:13:55.028Z,6.60
2019-04-26T17:16:22.469Z,10.55
2019-04-26T17:18:51.376Z,12.58
2019-04-26T17:21:23.911Z,8.38
2019-04-26T17:24:09.832Z,11.57
2019-04-26T17:26:40.205Z,16.15
2019-04-26T17:29:08.482Z,24.50
2019-04-26T17:31:37.065Z,13.78
2019-04-26T17:34:05.657Z,8.88
2019-04-26T17:36:34.557Z,14.23
2019-04-26T17:39:04.340Z,14.58
2019-04-26T17:41:33.283Z,13.95
2019-04-26T17:44:08.337Z,9.20
2019-04-26T17:46:32.617Z,9.63
2019-04-26T17:49:01.077Z,8.80
2019-04-26T17:51:31.281Z,17.40
2019-04-26T17:54:21.033Z,17.27
2019-04-26T17:56:33.625Z,12.63
2019-04-26T17:59:03.224Z,9.68
2019-04-26T18:01:42.936Z,10.10
2019-04-26T18:04:00.271Z,13.83
2019-04-26T18:06:30.076Z,13.95
2019-04-26T18:08:58.802Z,13.90
2019-04-26T18:11:27.304Z,14.70
2019-04-26T18:13:55.575Z,8.53
2019-04-26T18:16:29.134Z,11.97
2019-04-26T18:18:56.157Z,20.10
2019-04-26T18:21:37.969Z,11.25
2019-04-26T18:24:06.257Z,7.97
2019-04-26T18:26:34.569Z,13.15
2019-04-26T18:29:03.838Z,10.90
2019-04-26T18:31:33.636Z,14.63
2019-04-26T18:34:04.030Z,12.33
2019-04-26T18:36:33.309Z,11.25
2019-04-26T18:39:01.617Z,14.87
2019-04-26T18:41:29.974Z,13.80
2019-04-26T18:43:59.687Z,18.42
2019-04-26T18:46:46.918Z,11.63
2019-04-26T18:49:18.279Z,13.08
2019-04-26T18:51:48.118Z,13.30
2019-04-26T18:54:17.962Z,14.98
2019-04-26T18:56:48.061Z,20.97
2019-04-26T18:59:16.308Z,8.05
2019-04-26T19:01:44.927Z,15.78
2019-04-26T19:04:15.398Z,10.05
2019-04-26T19:06:43.451Z,10.28
2019-04-26T19:09:12.227Z,8.50
2019-04-26T19:11:43.823Z,8.33
2019-04-26T19:14:27.558Z,9.45
2019-04-26T19:17:02.025Z,9.85
2019-04-26T19:19:35.122Z,12.70
2019-04-26T19:22:04.970Z,9.00
2019-04-26T19:24:33.462Z,9.48
2019-04-26T19:27:04.152Z,14.15
2019-04-26T19:29:35.915Z,4.62
2019-04-26T19:32:04.315Z,5.00
2019-04-26T19:34:32.218Z,12.53
2019-04-26T19:37:01.467Z,9.25
2019-04-26T19:39:35.053Z,8.60
2019-04-26T19:42:02.370Z,6.05
2019-04-26T19:44:31.581Z,5.92
2019-04-26T19:47:04.949Z,8.53
2019-04-26T19:49:52.532Z,9.20
2019-04-26T19:52:28.918Z,13.20
2019-04-26T19:55:15.339Z,9.75
2019-04-26T19:57:45.418Z,7.45
2019-04-26T20:00:13.743Z,5.03
2019-04-26T20:02:42.155Z,7.70
2019-04-26T20:05:11.881Z,13.25
2019-04-26T20:07:41.628Z,4.67
2019-04-26T20:10:10.044Z,8.80
2019-04-26T20:12:38.366Z,5.47
2019-04-26T20:15:07.479Z,7.60
2019-04-26T20:17:35.759Z,14.43
2019-04-26T20:20:16.588Z,5.67
2019-04-26T20:22:34.394Z,14.38
2019-04-26T20:25:02.640Z,6.65
2019-04-26T20:27:32.410Z,5.65
2019-04-26T20:30:02.387Z,17.98
2019-04-26T20:32:32.465Z,6.25
2019-04-26T20:35:02.666Z,10.90
2019-04-26T20:37:32.196Z,4.95
2019-04-26T20:40:17.563Z,6.05
2019-04-26T20:42:31.649Z,8.20
2019-04-26T20:45:00.291Z,8.05
2019-04-26T20:47:28.558Z,3.47
2019-04-26T20:50:01.276Z,9.65
2019-04-26T20:52:26.794Z,9.83
2019-04-26T20:54:55.070Z,5.83
2019-04-26T20:57:26.635Z,6.08
2019-04-26T21:00:01.574Z,5.33
2019-04-26T21:02:24.825Z,8.75
2019-04-26T21:04:53.578Z,5.92
2019-04-26T21:07:21.967Z,14.47
2019-04-26T21:09:50.271Z,7.30
2019-04-26T21:12:18.586Z,5.40
2019-04-26T21:14:46.854Z,6.95
2019-04-26T21:17:15.139Z,6.85
2019-04-26T21:19:43.376Z,8.73
2019-04-26T21:22:11.676Z,14.58
2019-04-26T21:24:41.569Z,9.05
2019-04-26T21:27:14.461Z,3.95
2019-04-26T21:30:03.115Z,9.93
2019-04-26T21:32:33.239Z,7.10
2019-04-26T21:35:04.385Z,7.85
2019-04-26T21:37:37.221Z,6.67
2019-04-26T21:40:26.042Z,6.62
2019-04-26T21:42:55.311Z,4.50
2019-04-26T21:45:28.367Z,10.30
2019-04-26T21:47:54.320Z,6.03
2019-04-26T21:50:22.668Z,6.37
2019-04-26T21:52:51.195Z,10.50
2019-04-26T21:55:19.699Z,4.90
2019-04-26T21:57:47.952Z,11.60
2019-04-26T22:00:20.521Z,6.00
2019-04-26T22:02:48.781Z,6.60
2019-04-26T22:05:17.033Z,4.67
2019-04-26T22:07:47.738Z,15.93
2019-04-26T22:10:20.069Z,5.33
2019-04-26T22:12:48.583Z,16.30
2019-04-26T22:15:35.834Z,7.35
2019-04-26T22:18:03.261Z,11.80
2019-04-26T22:20:33.734Z,9.43
2019-04-26T22:23:03.717Z,6.35
2019-04-26T22:25:33.863Z,11.55
2019-04-26T22:28:03.354Z,7.60
2019-04-26T22:30:33.149Z,4.78
2019-04-26T22:33:03.012Z,5.70
2019-04-26T22:35:31.509Z,15.30
2019-04-26T22:37:59.779Z,7.35
2019-04-26T22:40:28.017Z,6.85
2019-04-26T22:42:58.183Z,11.75
2019-04-26T22:45:46.890Z,14.63
2019-04-26T22:48:23.036Z,11.12
2019-04-26T22:50:46.551Z,14.60
2019-04-26T22:53:15.083Z,12.97
2019-04-26T22:55:43.708Z,23.77
2019-04-26T22:58:13.404Z,23.07
2019-04-26T23:00:43.591Z,22.40
2019-04-26T23:19:15.264Z,18.10
